AAL972 PHNL-CYYC
Flight info
| Callsign | AAL972 |
|---|---|
| Flight time | 5h 1m |
| Altitude | 39000 |
| Route | MKK5 APACK R463 AUNTI A332 HALLI/N0469F410 A332 HEKAB DCT ZANNG A331 SEDAR C1418 HQM DCT TWISP DCT MENBO Q983 NORET IGVEP7 |
| Aircraft | B77W/H-SDE1E2E3FGHIJ2J3J4J5M1RWXY/LB1D1 |
Departure
| Time | 2026-05-08 01:08 |
|---|---|
| Airport | Daniel K. Inouye International Airport (PHNL) |
Arrival
| Time | 2026-05-08 06:09 |
|---|---|
| Airport | Calgary International Airport (CYYC) |
| Time | Latitude | Longitude | Altitude | Speed | Heading |
|---|---|---|---|---|---|
| 2026-05-08 00:46 | 21.33044 | -157.91939 | 20 ft | 0 kts | 278° |
| 2026-05-08 00:58 | 21.33043 | -157.91930 | 20 ft | 4 kts | 278° |
| 2026-05-08 00:58 | 21.33041 | -157.91902 | 21 ft | 4 kts | 257° |
| 2026-05-08 00:58 | 21.33053 | -157.91880 | 25 ft | 4 kts | 207° |
| 2026-05-08 00:59 | 21.33074 | -157.91873 | 23 ft | 1 kts | 186° |
| 2026-05-08 01:02 | 21.33035 | -157.91878 | 20 ft | 14 kts | 188° |
| 2026-05-08 01:02 | 21.32875 | -157.91910 | 16 ft | 33 kts | 191° |
| 2026-05-08 01:03 | 21.32710 | -157.91985 | 17 ft | 26 kts | 239° |
| 2026-05-08 01:03 | 21.32691 | -157.92178 | 18 ft | 26 kts | 270° |
| 2026-05-08 01:03 | 21.32693 | -157.92369 | 18 ft | 26 kts | 271° |
| 2026-05-08 01:03 | 21.32693 | -157.92558 | 18 ft | 23 kts | 270° |
| 2026-05-08 01:04 | 21.32696 | -157.92722 | 17 ft | 21 kts | 279° |
| 2026-05-08 01:04 | 21.32742 | -157.92869 | 16 ft | 21 kts | 271° |
| 2026-05-08 01:04 | 21.32743 | -157.93026 | 17 ft | 21 kts | 270° |
| 2026-05-08 01:04 | 21.32743 | -157.93184 | 18 ft | 21 kts | 270° |
| 2026-05-08 01:05 | 21.32743 | -157.93342 | 16 ft | 21 kts | 270° |
| 2026-05-08 01:05 | 21.32742 | -157.93499 | 17 ft | 21 kts | 270° |
| 2026-05-08 01:05 | 21.32741 | -157.93657 | 19 ft | 22 kts | 270° |
| 2026-05-08 01:05 | 21.32739 | -157.93832 | 17 ft | 24 kts | 269° |
| 2026-05-08 01:06 | 21.32735 | -157.94013 | 18 ft | 24 kts | 265° |
| 2026-05-08 01:06 | 21.32627 | -157.94128 | 19 ft | 22 kts | 202° |
| 2026-05-08 01:06 | 21.32529 | -157.94135 | 20 ft | 11 kts | 123° |
| 2026-05-08 01:06 | 21.32527 | -157.94053 | 22 ft | 11 kts | 89° |
| 2026-05-08 01:07 | 21.32527 | -157.94037 | 22 ft | 0 kts | 90° |
| 2026-05-08 01:07 | 21.32527 | -157.93984 | 25 ft | 24 kts | 90° |
| 2026-05-08 01:07 | 21.32527 | -157.93477 | 16 ft | 114 kts | 90° |
| 2026-05-08 01:08 | 21.32526 | -157.92342 | 43 ft | 184 kts | 89° |
| 2026-05-08 01:08 | 21.32522 | -157.90994 | 1012 ft | 169 kts | 87° |
| 2026-05-08 01:08 | 21.32550 | -157.89777 | 2168 ft | 162 kts | 84° |
| 2026-05-08 01:08 | 21.32621 | -157.88539 | 2898 ft | 172 kts | 83° |
| 2026-05-08 01:09 | 21.32640 | -157.87258 | 3720 ft | 173 kts | 87° |
| 2026-05-08 01:09 | 21.32658 | -157.85904 | 4345 ft | 189 kts | 86° |
| 2026-05-08 01:09 | 21.32688 | -157.84447 | 4964 ft | 199 kts | 91° |
| 2026-05-08 01:09 | 21.32628 | -157.82947 | 5673 ft | 203 kts | 92° |
| 2026-05-08 01:10 | 21.32591 | -157.81407 | 6344 ft | 209 kts | 90° |
| 2026-05-08 01:10 | 21.32597 | -157.79857 | 7017 ft | 212 kts | 88° |
| 2026-05-08 01:10 | 21.32529 | -157.78260 | 7555 ft | 219 kts | 107° |
| 2026-05-08 01:10 | 21.31986 | -157.76672 | 7933 ft | 234 kts | 112° |
| 2026-05-08 01:11 | 21.31431 | -157.74959 | 8420 ft | 251 kts | 110° |
| 2026-05-08 01:11 | 21.30858 | -157.73106 | 8838 ft | 276 kts | 111° |
| 2026-05-08 01:11 | 21.30225 | -157.71067 | 9294 ft | 295 kts | 108° |
| 2026-05-08 01:11 | 21.30092 | -157.68846 | 9954 ft | 308 kts | 78° |
| 2026-05-08 01:12 | 21.31047 | -157.66767 | 10570 ft | 324 kts | 49° |
| 2026-05-08 01:12 | 21.32853 | -157.65188 | 10819 ft | 350 kts | 29° |
| 2026-05-08 01:12 | 21.35093 | -157.63926 | 11035 ft | 378 kts | 24° |
| 2026-05-08 01:12 | 21.37500 | -157.62690 | 11701 ft | 388 kts | 27° |
| 2026-05-08 01:13 | 21.39798 | -157.61081 | 12566 ft | 398 kts | 37° |
| 2026-05-08 01:13 | 21.41947 | -157.59180 | 13617 ft | 404 kts | 39° |
| 2026-05-08 01:13 | 21.44126 | -157.57253 | 14576 ft | 408 kts | 39° |
| 2026-05-08 01:13 | 21.46330 | -157.55303 | 15510 ft | 413 kts | 39° |
| 2026-05-08 01:14 | 21.48529 | -157.53361 | 16375 ft | 418 kts | 39° |
| 2026-05-08 01:14 | 21.50782 | -157.51380 | 17438 ft | 419 kts | 39° |
| 2026-05-08 01:14 | 21.53044 | -157.49397 | 18426 ft | 422 kts | 39° |
| 2026-05-08 01:14 | 21.55345 | -157.47385 | 19123 ft | 429 kts | 38° |
| 2026-05-08 01:15 | 21.57673 | -157.45351 | 19957 ft | 433 kts | 39° |
| 2026-05-08 01:15 | 21.60014 | -157.43309 | 20820 ft | 436 kts | 38° |
| 2026-05-08 01:15 | 21.62390 | -157.41237 | 21553 ft | 442 kts | 38° |
| 2026-05-08 01:15 | 21.64791 | -157.39142 | 22368 ft | 446 kts | 39° |
| 2026-05-08 01:16 | 21.67210 | -157.37030 | 23120 ft | 452 kts | 38° |
| 2026-05-08 01:16 | 21.69665 | -157.34888 | 23822 ft | 457 kts | 38° |
| 2026-05-08 01:16 | 21.72137 | -157.32731 | 25383 ft | 456 kts | 39° |
| 2026-05-08 01:16 | 21.74596 | -157.30582 | 26256 ft | 456 kts | 39° |
| 2026-05-08 01:17 | 21.77071 | -157.28416 | 26946 ft | 461 kts | 39° |
| 2026-05-08 01:17 | 21.79570 | -157.26228 | 27502 ft | 467 kts | 39° |
| 2026-05-08 01:17 | 21.82034 | -157.24070 | 28048 ft | 472 kts | 39° |
| 2026-05-08 01:17 | 21.84606 | -157.21816 | 28398 ft | 485 kts | 38° |
| 2026-05-08 01:18 | 21.87294 | -157.19463 | 28452 ft | 507 kts | 37° |
| 2026-05-08 01:18 | 21.90080 | -157.17024 | 28584 ft | 525 kts | 38° |
| 2026-05-08 01:18 | 21.92954 | -157.14505 | 28736 ft | 541 kts | 38° |
| 2026-05-08 01:18 | 21.95900 | -157.11921 | 29019 ft | 551 kts | 38° |
| 2026-05-08 01:19 | 21.98897 | -157.09288 | 29413 ft | 558 kts | 38° |
| 2026-05-08 01:19 | 22.01873 | -157.06670 | 29906 ft | 561 kts | 38° |
| 2026-05-08 01:19 | 22.04901 | -157.04006 | 30429 ft | 563 kts | 38° |
| 2026-05-08 01:19 | 22.07977 | -157.01297 | 30922 ft | 564 kts | 38° |
| 2026-05-08 01:20 | 22.11017 | -156.98620 | 31466 ft | 564 kts | 38° |
| 2026-05-08 01:20 | 22.14051 | -156.95947 | 32057 ft | 562 kts | 38° |
| 2026-05-08 01:20 | 22.17073 | -156.93283 | 32653 ft | 560 kts | 38° |
| 2026-05-08 01:20 | 22.20048 | -156.90659 | 33206 ft | 559 kts | 38° |
| 2026-05-08 01:21 | 22.23054 | -156.88008 | 33721 ft | 558 kts | 38° |
| 2026-05-08 01:21 | 22.26055 | -156.85358 | 34235 ft | 557 kts | 38° |
| 2026-05-08 01:21 | 22.29053 | -156.82711 | 34717 ft | 556 kts | 38° |
| 2026-05-08 01:21 | 22.32038 | -156.80073 | 35207 ft | 554 kts | 38° |
| 2026-05-08 01:22 | 22.35020 | -156.77436 | 35680 ft | 553 kts | 38° |
| 2026-05-08 01:22 | 22.37991 | -156.74808 | 36123 ft | 552 kts | 38° |
| 2026-05-08 01:22 | 22.40960 | -156.72180 | 36549 ft | 551 kts | 38° |
| 2026-05-08 01:22 | 22.43929 | -156.69549 | 36928 ft | 551 kts | 38° |
| 2026-05-08 01:23 | 22.46896 | -156.66920 | 37300 ft | 551 kts | 38° |
| 2026-05-08 01:23 | 22.49859 | -156.64293 | 37679 ft | 551 kts | 38° |
| 2026-05-08 01:23 | 22.52817 | -156.61668 | 38057 ft | 550 kts | 38° |
| 2026-05-08 01:23 | 22.55773 | -156.59044 | 38430 ft | 549 kts | 38° |
| 2026-05-08 01:24 | 22.58722 | -156.56425 | 38778 ft | 549 kts | 38° |
| 2026-05-08 01:24 | 22.61669 | -156.53805 | 39098 ft | 548 kts | 38° |
| 2026-05-08 01:24 | 22.64617 | -156.51184 | 39404 ft | 548 kts | 38° |
| 2026-05-08 01:24 | 22.67564 | -156.48561 | 39685 ft | 549 kts | 38° |
| 2026-05-08 01:25 | 22.70512 | -156.45936 | 39983 ft | 549 kts | 38° |
| 2026-05-08 01:25 | 22.73461 | -156.43310 | 40263 ft | 548 kts | 38° |
| 2026-05-08 01:25 | 22.76406 | -156.40684 | 40535 ft | 548 kts | 38° |
| 2026-05-08 01:26 | 22.82310 | -156.35417 | 40589 ft | 548 kts | 38° |
| 2026-05-08 01:26 | 22.88139 | -156.30209 | 40549 ft | 539 kts | 38° |
| 2026-05-08 01:27 | 22.93902 | -156.25055 | 40567 ft | 538 kts | 38° |
| 2026-05-08 01:27 | 22.96795 | -156.22468 | 40362 ft | 541 kts | 38° |
| 2026-05-08 01:27 | 22.99718 | -156.19852 | 39658 ft | 551 kts | 38° |
| 2026-05-08 01:27 | 23.02707 | -156.17176 | 39265 ft | 562 kts | 38° |
| 2026-05-08 01:28 | 23.05745 | -156.14454 | 39127 ft | 570 kts | 38° |
| 2026-05-08 01:28 | 23.08819 | -156.11697 | 38997 ft | 576 kts | 38° |
| 2026-05-08 01:28 | 23.11910 | -156.08921 | 39005 ft | 576 kts | 38° |
| 2026-05-08 01:29 | 23.18092 | -156.03364 | 39002 ft | 577 kts | 38° |
| 2026-05-08 01:29 | 23.24284 | -155.97792 | 39000 ft | 578 kts | 38° |
| 2026-05-08 01:30 | 23.30482 | -155.92210 | 38998 ft | 578 kts | 38° |
| 2026-05-08 01:30 | 23.36647 | -155.86650 | 38995 ft | 578 kts | 38° |
| 2026-05-08 01:31 | 23.42831 | -155.81067 | 38996 ft | 579 kts | 38° |
| 2026-05-08 01:31 | 23.49035 | -155.75457 | 39007 ft | 579 kts | 38° |
| 2026-05-08 01:32 | 23.55229 | -155.69850 | 39002 ft | 579 kts | 38° |
| 2026-05-08 01:32 | 23.61418 | -155.64240 | 39000 ft | 578 kts | 38° |
| 2026-05-08 01:33 | 23.67600 | -155.58630 | 38998 ft | 578 kts | 38° |
| 2026-05-08 01:33 | 23.73781 | -155.53013 | 38999 ft | 578 kts | 38° |
| 2026-05-08 01:34 | 23.79961 | -155.47390 | 38998 ft | 578 kts | 38° |
| 2026-05-08 01:34 | 23.86136 | -155.41765 | 39000 ft | 578 kts | 38° |
| 2026-05-08 01:35 | 23.92310 | -155.36133 | 39002 ft | 578 kts | 38° |
| 2026-05-08 01:35 | 23.98481 | -155.30497 | 38997 ft | 578 kts | 39° |
| 2026-05-08 01:36 | 24.04648 | -155.24856 | 38999 ft | 578 kts | 39° |
| 2026-05-08 01:36 | 24.10818 | -155.19207 | 39002 ft | 578 kts | 39° |
| 2026-05-08 01:37 | 24.16988 | -155.13549 | 39004 ft | 578 kts | 39° |
| 2026-05-08 01:37 | 24.23151 | -155.07890 | 39004 ft | 578 kts | 39° |
| 2026-05-08 01:38 | 24.29272 | -155.02264 | 39002 ft | 578 kts | 39° |
| 2026-05-08 01:38 | 24.35429 | -154.96595 | 39002 ft | 578 kts | 39° |
| 2026-05-08 01:39 | 24.41586 | -154.90920 | 39010 ft | 578 kts | 39° |
| 2026-05-08 01:39 | 24.47739 | -154.85242 | 39005 ft | 578 kts | 39° |
| 2026-05-08 01:40 | 24.53896 | -154.79552 | 39000 ft | 578 kts | 39° |
| 2026-05-08 01:40 | 24.60044 | -154.73862 | 39002 ft | 578 kts | 39° |
| 2026-05-08 01:41 | 24.66191 | -154.68166 | 39000 ft | 578 kts | 39° |
| 2026-05-08 01:41 | 24.72337 | -154.62463 | 38999 ft | 578 kts | 39° |
| 2026-05-08 01:42 | 24.78481 | -154.56755 | 39008 ft | 578 kts | 39° |
| 2026-05-08 01:42 | 24.83628 | -154.51967 | 38999 ft | 578 kts | 39° |
| 2026-05-08 01:43 | 24.89767 | -154.46249 | 38999 ft | 578 kts | 39° |
| 2026-05-08 01:43 | 24.95910 | -154.40520 | 38997 ft | 578 kts | 39° |
| 2026-05-08 01:44 | 25.02049 | -154.34786 | 39001 ft | 578 kts | 39° |
| 2026-05-08 01:44 | 25.08140 | -154.29089 | 39003 ft | 578 kts | 39° |
| 2026-05-08 01:45 | 25.14273 | -154.23346 | 39002 ft | 578 kts | 39° |
| 2026-05-08 01:45 | 25.20408 | -154.17593 | 39001 ft | 578 kts | 39° |
| 2026-05-08 01:46 | 25.26535 | -154.11840 | 38999 ft | 578 kts | 39° |
| 2026-05-08 01:46 | 25.32661 | -154.06079 | 39006 ft | 578 kts | 39° |
| 2026-05-08 01:47 | 25.38788 | -154.00310 | 38999 ft | 578 kts | 39° |
| 2026-05-08 01:47 | 25.44909 | -153.94538 | 39000 ft | 578 kts | 39° |
| 2026-05-08 01:48 | 25.54087 | -153.85869 | 39000 ft | 578 kts | 39° |
| 2026-05-08 01:48 | 25.60206 | -153.80078 | 39006 ft | 578 kts | 39° |
| 2026-05-08 01:49 | 25.66317 | -153.74289 | 39003 ft | 578 kts | 39° |
| 2026-05-08 01:49 | 25.72430 | -153.68488 | 38999 ft | 578 kts | 39° |
| 2026-05-08 01:50 | 25.78538 | -153.62684 | 39005 ft | 578 kts | 39° |
| 2026-05-08 01:50 | 25.84606 | -153.56910 | 39004 ft | 578 kts | 39° |
| 2026-05-08 01:51 | 25.90750 | -153.51056 | 39007 ft | 578 kts | 39° |
| 2026-05-08 01:51 | 25.96810 | -153.45273 | 38995 ft | 578 kts | 39° |
| 2026-05-08 01:52 | 26.02907 | -153.39448 | 39004 ft | 578 kts | 39° |
| 2026-05-08 01:52 | 26.09009 | -153.33608 | 38998 ft | 578 kts | 39° |
| 2026-05-08 01:53 | 26.15102 | -153.27769 | 38999 ft | 578 kts | 39° |
| 2026-05-08 01:53 | 26.21195 | -153.21921 | 38998 ft | 578 kts | 39° |
| 2026-05-08 01:54 | 26.27284 | -153.16070 | 38998 ft | 578 kts | 40° |
| 2026-05-08 01:54 | 26.33370 | -153.10213 | 39007 ft | 578 kts | 40° |
| 2026-05-08 01:55 | 26.39459 | -153.04344 | 39002 ft | 578 kts | 40° |
| 2026-05-08 01:55 | 26.45543 | -152.98471 | 39000 ft | 578 kts | 40° |
| 2026-05-08 01:56 | 26.51620 | -152.92597 | 38998 ft | 578 kts | 40° |
| 2026-05-08 01:56 | 26.57701 | -152.86711 | 39004 ft | 578 kts | 40° |
| 2026-05-08 01:57 | 26.63776 | -152.80821 | 38998 ft | 578 kts | 40° |
| 2026-05-08 01:57 | 26.69849 | -152.74925 | 39008 ft | 578 kts | 40° |
| 2026-05-08 01:58 | 26.75923 | -152.69020 | 38998 ft | 578 kts | 40° |
| 2026-05-08 01:58 | 26.81990 | -152.63112 | 39004 ft | 578 kts | 40° |
| 2026-05-08 01:59 | 26.88061 | -152.57192 | 39003 ft | 578 kts | 40° |
| 2026-05-08 01:59 | 26.94124 | -152.51271 | 38997 ft | 578 kts | 40° |
| 2026-05-08 02:00 | 27.00185 | -152.45342 | 38995 ft | 578 kts | 40° |
| 2026-05-08 02:00 | 27.06247 | -152.39404 | 38997 ft | 578 kts | 40° |
| 2026-05-08 02:01 | 27.12302 | -152.33465 | 39001 ft | 578 kts | 40° |
| 2026-05-08 02:01 | 27.18355 | -152.27518 | 39002 ft | 578 kts | 40° |
| 2026-05-08 02:02 | 27.24408 | -152.21562 | 39007 ft | 578 kts | 40° |
| 2026-05-08 02:02 | 27.30457 | -152.15602 | 38999 ft | 578 kts | 40° |
| 2026-05-08 02:03 | 27.36503 | -152.09635 | 39003 ft | 578 kts | 40° |
| 2026-05-08 02:03 | 27.42508 | -152.03700 | 39002 ft | 578 kts | 40° |
| 2026-05-08 02:04 | 27.48546 | -151.97723 | 39004 ft | 578 kts | 40° |
| 2026-05-08 02:04 | 27.54585 | -151.91736 | 38998 ft | 578 kts | 40° |
| 2026-05-08 02:05 | 27.60627 | -151.85738 | 38996 ft | 578 kts | 40° |
| 2026-05-08 02:05 | 27.66658 | -151.79740 | 39001 ft | 578 kts | 40° |
| 2026-05-08 02:06 | 27.72691 | -151.73731 | 39001 ft | 578 kts | 40° |
| 2026-05-08 02:06 | 27.78722 | -151.67715 | 39004 ft | 578 kts | 40° |
| 2026-05-08 02:07 | 27.84753 | -151.61691 | 39003 ft | 578 kts | 40° |
| 2026-05-08 02:07 | 27.90775 | -151.55666 | 39003 ft | 578 kts | 40° |
| 2026-05-08 02:08 | 27.96794 | -151.49633 | 39006 ft | 578 kts | 40° |
| 2026-05-08 02:08 | 28.02812 | -151.43593 | 39008 ft | 578 kts | 40° |
| 2026-05-08 02:09 | 28.08828 | -151.37547 | 39001 ft | 578 kts | 40° |
| 2026-05-08 02:09 | 28.14851 | -151.31483 | 38996 ft | 578 kts | 40° |
| 2026-05-08 02:10 | 28.20865 | -151.25418 | 39002 ft | 578 kts | 40° |
| 2026-05-08 02:10 | 28.26834 | -151.19390 | 39005 ft | 578 kts | 40° |
| 2026-05-08 02:11 | 28.32846 | -151.13309 | 39008 ft | 578 kts | 41° |
| 2026-05-08 02:11 | 28.38842 | -151.07233 | 39003 ft | 578 kts | 41° |
| 2026-05-08 02:12 | 28.44843 | -151.01144 | 39000 ft | 578 kts | 41° |
| 2026-05-08 02:12 | 28.50844 | -150.95044 | 39003 ft | 578 kts | 41° |
| 2026-05-08 02:13 | 28.56841 | -150.88940 | 38998 ft | 578 kts | 41° |
| 2026-05-08 02:13 | 28.62833 | -150.82830 | 39000 ft | 578 kts | 41° |
| 2026-05-08 02:14 | 28.68818 | -150.76718 | 39000 ft | 578 kts | 41° |
| 2026-05-08 02:14 | 28.74809 | -150.70590 | 39001 ft | 578 kts | 41° |
| 2026-05-08 02:15 | 28.80796 | -150.64456 | 38998 ft | 578 kts | 41° |
| 2026-05-08 02:15 | 28.86782 | -150.58314 | 38995 ft | 578 kts | 41° |
| 2026-05-08 02:16 | 28.92762 | -150.52168 | 39002 ft | 578 kts | 41° |
| 2026-05-08 02:16 | 28.98742 | -150.46012 | 39003 ft | 578 kts | 41° |
| 2026-05-08 02:17 | 29.04712 | -150.39856 | 39000 ft | 578 kts | 41° |
| 2026-05-08 02:17 | 29.10688 | -150.33683 | 38999 ft | 578 kts | 41° |
| 2026-05-08 02:18 | 29.16652 | -150.27513 | 39002 ft | 578 kts | 41° |
| 2026-05-08 02:18 | 29.22619 | -150.21330 | 38997 ft | 578 kts | 41° |
| 2026-05-08 02:19 | 29.28580 | -150.15143 | 39000 ft | 578 kts | 41° |
| 2026-05-08 02:19 | 29.34540 | -150.08946 | 39003 ft | 578 kts | 41° |
| 2026-05-08 02:20 | 29.40498 | -150.02742 | 38998 ft | 578 kts | 41° |
| 2026-05-08 02:20 | 29.46412 | -149.96573 | 39003 ft | 578 kts | 41° |
| 2026-05-08 02:21 | 29.52361 | -149.90358 | 39003 ft | 578 kts | 41° |
| 2026-05-08 02:21 | 29.58315 | -149.84127 | 39002 ft | 578 kts | 41° |
| 2026-05-08 02:22 | 29.64258 | -149.77896 | 39003 ft | 578 kts | 41° |
| 2026-05-08 02:22 | 29.70195 | -149.71662 | 38999 ft | 578 kts | 41° |
| 2026-05-08 02:23 | 29.76137 | -149.65412 | 39005 ft | 579 kts | 41° |
| 2026-05-08 02:23 | 29.82079 | -149.59152 | 38998 ft | 579 kts | 41° |
| 2026-05-08 02:24 | 29.88015 | -149.52887 | 39003 ft | 579 kts | 41° |
| 2026-05-08 02:24 | 29.93946 | -149.46617 | 38998 ft | 579 kts | 41° |
| 2026-05-08 02:25 | 29.99877 | -149.40336 | 39001 ft | 579 kts | 41° |
| 2026-05-08 02:25 | 30.05799 | -149.34055 | 38997 ft | 579 kts | 41° |
| 2026-05-08 02:26 | 30.11726 | -149.27757 | 39003 ft | 579 kts | 42° |
| 2026-05-08 02:26 | 30.17645 | -149.21457 | 39002 ft | 579 kts | 42° |
| 2026-05-08 02:27 | 30.23566 | -149.15145 | 39000 ft | 579 kts | 42° |
| 2026-05-08 02:27 | 30.29477 | -149.08831 | 39003 ft | 579 kts | 42° |
| 2026-05-08 02:28 | 30.34389 | -149.03577 | 38996 ft | 579 kts | 42° |
| 2026-05-08 02:28 | 30.40295 | -148.97250 | 39002 ft | 578 kts | 42° |
| 2026-05-08 02:29 | 30.47155 | -148.89886 | 38998 ft | 578 kts | 42° |
| 2026-05-08 02:29 | 30.52102 | -148.84567 | 39008 ft | 578 kts | 42° |
| 2026-05-08 02:30 | 30.58002 | -148.78213 | 39002 ft | 579 kts | 42° |
| 2026-05-08 02:30 | 30.63890 | -148.71860 | 39003 ft | 579 kts | 42° |
| 2026-05-08 02:31 | 30.69783 | -148.65492 | 39003 ft | 579 kts | 42° |
| 2026-05-08 02:31 | 30.75673 | -148.59116 | 39004 ft | 579 kts | 42° |
| 2026-05-08 02:32 | 30.81523 | -148.52771 | 39000 ft | 579 kts | 42° |
| 2026-05-08 02:32 | 30.87405 | -148.46381 | 39002 ft | 579 kts | 42° |
| 2026-05-08 02:33 | 30.93290 | -148.39976 | 38998 ft | 579 kts | 42° |
| 2026-05-08 02:33 | 30.99168 | -148.33568 | 38998 ft | 579 kts | 42° |
| 2026-05-08 02:34 | 31.05039 | -148.27156 | 39000 ft | 579 kts | 42° |
| 2026-05-08 02:34 | 31.10913 | -148.20728 | 38999 ft | 579 kts | 42° |
| 2026-05-08 02:35 | 31.16781 | -148.14297 | 39005 ft | 579 kts | 42° |
| 2026-05-08 02:35 | 31.22643 | -148.07861 | 39003 ft | 579 kts | 43° |
| 2026-05-08 02:36 | 31.28504 | -148.01413 | 39008 ft | 579 kts | 43° |
| 2026-05-08 02:36 | 31.34360 | -147.94960 | 39001 ft | 579 kts | 43° |
| 2026-05-08 02:37 | 31.40216 | -147.88495 | 39001 ft | 579 kts | 43° |
| 2026-05-08 02:37 | 31.46068 | -147.82024 | 39010 ft | 579 kts | 43° |
| 2026-05-08 02:38 | 31.51913 | -147.75547 | 39002 ft | 579 kts | 43° |
| 2026-05-08 02:38 | 31.57724 | -147.69098 | 39001 ft | 579 kts | 43° |
| 2026-05-08 02:39 | 31.63571 | -147.62596 | 39003 ft | 579 kts | 43° |
| 2026-05-08 02:39 | 31.69410 | -147.56092 | 39000 ft | 579 kts | 43° |
| 2026-05-08 02:40 | 31.75249 | -147.49576 | 39001 ft | 579 kts | 43° |
| 2026-05-08 02:40 | 31.81082 | -147.43054 | 39006 ft | 579 kts | 43° |
| 2026-05-08 02:41 | 31.86908 | -147.36528 | 38996 ft | 579 kts | 43° |
| 2026-05-08 02:41 | 31.92734 | -147.29990 | 39003 ft | 579 kts | 43° |
| 2026-05-08 02:42 | 31.98558 | -147.23442 | 38998 ft | 579 kts | 43° |
| 2026-05-08 02:42 | 32.04375 | -147.16891 | 39006 ft | 579 kts | 43° |
| 2026-05-08 02:43 | 32.10189 | -147.10330 | 39010 ft | 579 kts | 43° |
| 2026-05-08 02:43 | 32.15968 | -147.03797 | 39002 ft | 579 kts | 43° |
| 2026-05-08 02:44 | 32.21773 | -146.97223 | 39002 ft | 579 kts | 43° |
| 2026-05-08 02:44 | 32.27579 | -146.90634 | 38999 ft | 579 kts | 43° |
| 2026-05-08 02:45 | 32.33382 | -146.84037 | 38996 ft | 579 kts | 43° |
| 2026-05-08 02:45 | 32.39183 | -146.77430 | 39002 ft | 579 kts | 43° |
| 2026-05-08 02:46 | 32.44979 | -146.70816 | 39008 ft | 579 kts | 43° |
| 2026-05-08 02:46 | 32.50771 | -146.64195 | 38997 ft | 579 kts | 43° |
| 2026-05-08 02:47 | 32.56561 | -146.57563 | 38999 ft | 579 kts | 43° |
| 2026-05-08 02:47 | 32.62347 | -146.50923 | 39005 ft | 579 kts | 43° |
| 2026-05-08 02:48 | 32.68129 | -146.44275 | 39002 ft | 579 kts | 43° |
| 2026-05-08 02:48 | 32.73905 | -146.37621 | 39001 ft | 579 kts | 43° |
| 2026-05-08 02:49 | 32.79680 | -146.30956 | 39002 ft | 579 kts | 44° |
| 2026-05-08 02:49 | 32.85413 | -146.24326 | 39002 ft | 579 kts | 44° |
| 2026-05-08 02:50 | 32.91179 | -146.17647 | 38999 ft | 579 kts | 44° |
| 2026-05-08 02:50 | 32.96946 | -146.10952 | 39006 ft | 579 kts | 44° |
| 2026-05-08 02:51 | 33.02706 | -146.04253 | 38999 ft | 579 kts | 44° |
| 2026-05-08 02:51 | 33.08461 | -145.97547 | 39006 ft | 579 kts | 44° |
| 2026-05-08 02:52 | 33.14214 | -145.90830 | 39005 ft | 579 kts | 44° |
| 2026-05-08 02:52 | 33.19968 | -145.84100 | 39001 ft | 579 kts | 44° |
| 2026-05-08 02:53 | 33.25712 | -145.77367 | 38999 ft | 579 kts | 44° |
| 2026-05-08 02:53 | 33.31456 | -145.70621 | 39001 ft | 579 kts | 44° |
| 2026-05-08 02:54 | 33.37197 | -145.63866 | 38997 ft | 579 kts | 44° |
| 2026-05-08 02:54 | 33.42931 | -145.57106 | 39005 ft | 579 kts | 44° |
| 2026-05-08 02:55 | 33.51525 | -145.46950 | 38999 ft | 579 kts | 44° |
| 2026-05-08 02:56 | 33.57213 | -145.40211 | 39002 ft | 579 kts | 44° |
| 2026-05-08 02:56 | 33.62938 | -145.33415 | 39002 ft | 579 kts | 44° |
| 2026-05-08 02:57 | 33.68654 | -145.26615 | 38998 ft | 579 kts | 44° |
| 2026-05-08 02:57 | 33.74370 | -145.19803 | 39000 ft | 579 kts | 44° |
| 2026-05-08 02:58 | 33.80082 | -145.12983 | 39006 ft | 579 kts | 44° |
| 2026-05-08 02:58 | 33.85792 | -145.06151 | 39004 ft | 579 kts | 44° |
| 2026-05-08 02:59 | 33.91495 | -144.99313 | 39002 ft | 579 kts | 44° |
| 2026-05-08 02:59 | 33.97197 | -144.92463 | 38997 ft | 579 kts | 44° |
| 2026-05-08 03:00 | 34.02893 | -144.85606 | 39003 ft | 579 kts | 44° |
| 2026-05-08 03:00 | 34.08585 | -144.78741 | 39004 ft | 579 kts | 44° |
| 2026-05-08 03:01 | 34.14272 | -144.71867 | 39001 ft | 579 kts | 44° |
| 2026-05-08 03:01 | 34.19958 | -144.64982 | 39005 ft | 579 kts | 45° |
| 2026-05-08 03:02 | 34.25640 | -144.58086 | 38999 ft | 579 kts | 45° |
| 2026-05-08 03:02 | 34.31315 | -144.51186 | 39007 ft | 579 kts | 45° |
| 2026-05-08 03:03 | 34.36992 | -144.44268 | 38999 ft | 579 kts | 45° |
| 2026-05-08 03:03 | 34.42658 | -144.37350 | 39003 ft | 579 kts | 45° |
| 2026-05-08 03:04 | 34.48328 | -144.30414 | 39002 ft | 579 kts | 45° |
| 2026-05-08 03:04 | 34.53987 | -144.23475 | 38998 ft | 579 kts | 45° |
| 2026-05-08 03:05 | 34.59644 | -144.16526 | 38998 ft | 579 kts | 45° |
| 2026-05-08 03:05 | 34.65301 | -144.09562 | 39003 ft | 579 kts | 45° |
| 2026-05-08 03:06 | 34.70949 | -144.02595 | 38998 ft | 579 kts | 45° |
| 2026-05-08 03:06 | 34.76599 | -143.95611 | 39004 ft | 579 kts | 45° |
| 2026-05-08 03:07 | 34.82200 | -143.88674 | 38996 ft | 579 kts | 45° |
| 2026-05-08 03:07 | 34.87839 | -143.81674 | 39007 ft | 579 kts | 45° |
| 2026-05-08 03:08 | 34.93472 | -143.74667 | 38996 ft | 579 kts | 45° |
| 2026-05-08 03:08 | 34.99106 | -143.67645 | 39003 ft | 579 kts | 45° |
| 2026-05-08 03:09 | 35.04731 | -143.60619 | 39004 ft | 579 kts | 45° |
| 2026-05-08 03:09 | 35.10351 | -143.53585 | 39002 ft | 579 kts | 45° |
| 2026-05-08 03:10 | 35.15971 | -143.46536 | 38998 ft | 579 kts | 45° |
| 2026-05-08 03:10 | 35.21586 | -143.39478 | 39008 ft | 579 kts | 45° |
| 2026-05-08 03:11 | 35.27196 | -143.32412 | 39006 ft | 579 kts | 45° |
| 2026-05-08 03:11 | 35.32805 | -143.25332 | 38999 ft | 579 kts | 45° |
| 2026-05-08 03:12 | 35.38416 | -143.18234 | 39002 ft | 579 kts | 45° |
| 2026-05-08 03:12 | 35.44011 | -143.11141 | 39002 ft | 579 kts | 45° |
| 2026-05-08 03:13 | 35.49568 | -143.04082 | 38997 ft | 579 kts | 46° |
| 2026-05-08 03:13 | 35.55159 | -142.96964 | 39000 ft | 579 kts | 46° |
| 2026-05-08 03:14 | 35.60743 | -142.89840 | 39010 ft | 579 kts | 46° |
| 2026-05-08 03:14 | 35.66325 | -142.82703 | 39002 ft | 579 kts | 46° |
| 2026-05-08 03:15 | 35.71901 | -142.75559 | 39008 ft | 579 kts | 46° |
| 2026-05-08 03:15 | 35.77474 | -142.68403 | 38999 ft | 579 kts | 46° |
| 2026-05-08 03:16 | 35.83041 | -142.61239 | 39003 ft | 579 kts | 46° |
| 2026-05-08 03:16 | 35.88605 | -142.54063 | 39002 ft | 579 kts | 46° |
| 2026-05-08 03:17 | 35.94163 | -142.46880 | 39003 ft | 579 kts | 46° |
| 2026-05-08 03:17 | 35.99719 | -142.39684 | 38998 ft | 579 kts | 46° |
| 2026-05-08 03:18 | 36.05271 | -142.32476 | 38998 ft | 579 kts | 46° |
| 2026-05-08 03:18 | 36.10819 | -142.25259 | 39005 ft | 579 kts | 46° |
| 2026-05-08 03:19 | 36.15428 | -142.19251 | 38997 ft | 579 kts | 46° |
| 2026-05-08 03:19 | 36.20965 | -142.12019 | 39004 ft | 579 kts | 46° |
| 2026-05-08 03:20 | 36.26498 | -142.04775 | 39004 ft | 579 kts | 46° |
| 2026-05-08 03:20 | 36.32029 | -141.97519 | 39002 ft | 579 kts | 46° |
| 2026-05-08 03:21 | 36.37556 | -141.90252 | 39002 ft | 579 kts | 46° |
| 2026-05-08 03:21 | 36.43077 | -141.82977 | 38997 ft | 579 kts | 46° |
| 2026-05-08 03:22 | 36.48595 | -141.75688 | 39002 ft | 579 kts | 46° |
| 2026-05-08 03:22 | 36.54108 | -141.68391 | 38995 ft | 579 kts | 46° |
| 2026-05-08 03:23 | 36.59614 | -141.61087 | 39001 ft | 579 kts | 46° |
| 2026-05-08 03:23 | 36.65118 | -141.53769 | 39004 ft | 579 kts | 47° |
| 2026-05-08 03:24 | 36.70619 | -141.46439 | 39001 ft | 579 kts | 47° |
| 2026-05-08 03:24 | 36.76112 | -141.39102 | 39002 ft | 579 kts | 47° |
| 2026-05-08 03:25 | 36.81564 | -141.31804 | 39002 ft | 579 kts | 47° |
| 2026-05-08 03:25 | 36.87087 | -141.24394 | 39003 ft | 579 kts | 47° |
| 2026-05-08 03:26 | 36.92534 | -141.17070 | 39001 ft | 579 kts | 47° |
| 2026-05-08 03:26 | 36.98011 | -141.09689 | 38999 ft | 579 kts | 47° |
| 2026-05-08 03:27 | 37.03481 | -141.02301 | 39002 ft | 579 kts | 47° |
| 2026-05-08 03:27 | 37.08949 | -140.94897 | 39000 ft | 579 kts | 47° |
| 2026-05-08 03:28 | 37.14412 | -140.87484 | 39000 ft | 579 kts | 47° |
| 2026-05-08 03:28 | 37.19871 | -140.80060 | 38999 ft | 579 kts | 47° |
| 2026-05-08 03:29 | 37.25325 | -140.72626 | 38998 ft | 579 kts | 47° |
| 2026-05-08 03:29 | 37.30773 | -140.65181 | 39001 ft | 579 kts | 47° |
| 2026-05-08 03:30 | 37.38939 | -140.53992 | 38998 ft | 579 kts | 47° |
| 2026-05-08 03:31 | 37.49810 | -140.39035 | 39003 ft | 579 kts | 47° |
| 2026-05-08 03:32 | 37.57915 | -140.27839 | 39003 ft | 579 kts | 47° |
| 2026-05-08 03:32 | 37.63372 | -140.20279 | 39002 ft | 579 kts | 47° |
| 2026-05-08 03:33 | 37.68749 | -140.12811 | 39000 ft | 579 kts | 47° |
| 2026-05-08 03:33 | 37.74160 | -140.05279 | 39002 ft | 579 kts | 47° |
| 2026-05-08 03:34 | 37.79571 | -139.97730 | 39002 ft | 579 kts | 48° |
| 2026-05-08 03:34 | 37.84972 | -139.90177 | 39002 ft | 579 kts | 48° |
| 2026-05-08 03:35 | 37.90366 | -139.82615 | 38995 ft | 579 kts | 48° |
| 2026-05-08 03:35 | 37.95759 | -139.75038 | 39001 ft | 579 kts | 48° |
| 2026-05-08 03:36 | 38.01145 | -139.67451 | 39006 ft | 579 kts | 48° |
| 2026-05-08 03:36 | 38.06526 | -139.59854 | 39001 ft | 579 kts | 48° |
| 2026-05-08 03:37 | 38.11904 | -139.52244 | 39001 ft | 579 kts | 48° |
| 2026-05-08 03:37 | 38.17275 | -139.44625 | 39004 ft | 579 kts | 48° |
| 2026-05-08 03:38 | 38.22644 | -139.36990 | 38999 ft | 579 kts | 48° |
| 2026-05-08 03:38 | 38.28008 | -139.29344 | 38994 ft | 579 kts | 48° |
| 2026-05-08 03:39 | 38.33364 | -139.21692 | 39010 ft | 579 kts | 48° |
| 2026-05-08 03:39 | 38.38716 | -139.14026 | 38997 ft | 579 kts | 48° |
| 2026-05-08 03:40 | 38.44065 | -139.06346 | 39000 ft | 579 kts | 48° |
| 2026-05-08 03:40 | 38.49408 | -138.98656 | 39002 ft | 579 kts | 49° |
| 2026-05-08 03:41 | 38.54709 | -138.91008 | 39003 ft | 579 kts | 49° |
| 2026-05-08 03:41 | 38.60041 | -138.83298 | 39001 ft | 579 kts | 49° |
| 2026-05-08 03:42 | 38.65365 | -138.75580 | 39002 ft | 579 kts | 49° |
| 2026-05-08 03:42 | 38.70687 | -138.67845 | 39005 ft | 579 kts | 49° |
| 2026-05-08 03:43 | 38.76006 | -138.60097 | 38998 ft | 579 kts | 49° |
| 2026-05-08 03:43 | 38.81317 | -138.52341 | 39005 ft | 579 kts | 49° |
| 2026-05-08 03:44 | 38.86626 | -138.44569 | 39002 ft | 579 kts | 49° |
| 2026-05-08 03:44 | 38.91927 | -138.36788 | 39002 ft | 579 kts | 49° |
| 2026-05-08 03:45 | 38.97223 | -138.28997 | 39000 ft | 579 kts | 49° |
| 2026-05-08 03:45 | 39.02515 | -138.21193 | 38998 ft | 579 kts | 49° |
| 2026-05-08 03:46 | 39.07798 | -138.13381 | 39004 ft | 579 kts | 49° |
| 2026-05-08 03:46 | 39.13079 | -138.05553 | 39005 ft | 579 kts | 49° |
| 2026-05-08 03:47 | 39.18357 | -137.97711 | 39002 ft | 579 kts | 49° |
| 2026-05-08 03:47 | 39.23623 | -137.89866 | 39000 ft | 579 kts | 49° |
| 2026-05-08 03:48 | 39.28890 | -137.82002 | 38997 ft | 579 kts | 49° |
| 2026-05-08 03:48 | 39.34149 | -137.74128 | 39001 ft | 579 kts | 49° |
| 2026-05-08 03:49 | 39.39405 | -137.66240 | 39006 ft | 579 kts | 49° |
| 2026-05-08 03:49 | 39.44653 | -137.58343 | 38999 ft | 579 kts | 50° |
| 2026-05-08 03:50 | 39.49863 | -137.50485 | 38995 ft | 579 kts | 50° |
| 2026-05-08 03:50 | 39.55102 | -137.42562 | 38999 ft | 579 kts | 50° |
| 2026-05-08 03:51 | 39.60332 | -137.34632 | 39005 ft | 579 kts | 50° |
| 2026-05-08 03:51 | 39.65558 | -137.26688 | 38999 ft | 579 kts | 50° |
| 2026-05-08 03:52 | 39.70781 | -137.18730 | 39006 ft | 579 kts | 50° |
| 2026-05-08 03:52 | 39.75997 | -137.10761 | 39002 ft | 579 kts | 50° |
| 2026-05-08 03:53 | 39.81209 | -137.02778 | 38995 ft | 579 kts | 50° |
| 2026-05-08 03:53 | 39.86412 | -136.94787 | 39002 ft | 579 kts | 50° |
| 2026-05-08 03:54 | 39.91613 | -136.86781 | 39001 ft | 579 kts | 50° |
| 2026-05-08 03:54 | 39.96806 | -136.78765 | 39009 ft | 579 kts | 50° |
| 2026-05-08 03:55 | 40.01997 | -136.70731 | 39007 ft | 579 kts | 50° |
| 2026-05-08 03:55 | 40.07181 | -136.62688 | 38998 ft | 579 kts | 50° |
| 2026-05-08 03:56 | 40.12358 | -136.54635 | 39002 ft | 579 kts | 50° |
| 2026-05-08 03:56 | 40.17530 | -136.46569 | 38994 ft | 579 kts | 50° |
| 2026-05-08 03:57 | 40.22697 | -136.38490 | 39006 ft | 579 kts | 50° |
| 2026-05-08 03:57 | 40.27857 | -136.30400 | 38997 ft | 579 kts | 50° |
| 2026-05-08 03:58 | 40.32978 | -136.22350 | 39002 ft | 579 kts | 50° |
| 2026-05-08 03:58 | 40.38125 | -136.14238 | 38998 ft | 579 kts | 51° |
| 2026-05-08 03:59 | 40.43269 | -136.06110 | 38999 ft | 579 kts | 51° |
| 2026-05-08 03:59 | 40.48406 | -135.97971 | 38995 ft | 579 kts | 51° |
| 2026-05-08 04:00 | 40.53538 | -135.89818 | 38999 ft | 579 kts | 51° |
| 2026-05-08 04:00 | 40.58665 | -135.81652 | 38997 ft | 579 kts | 51° |
| 2026-05-08 04:01 | 40.63785 | -135.73476 | 39007 ft | 579 kts | 51° |
| 2026-05-08 04:01 | 40.68279 | -135.66281 | 39010 ft | 579 kts | 51° |
| 2026-05-08 04:02 | 40.73385 | -135.58085 | 39000 ft | 579 kts | 51° |
| 2026-05-08 04:02 | 40.78507 | -135.49844 | 39227 ft | 582 kts | 51° |
| 2026-05-08 04:02 | 40.81064 | -135.45719 | 39488 ft | 580 kts | 51° |
| 2026-05-08 04:03 | 40.83617 | -135.41597 | 39743 ft | 579 kts | 51° |
| 2026-05-08 04:03 | 40.88709 | -135.33358 | 40197 ft | 578 kts | 51° |
| 2026-05-08 04:03 | 40.91252 | -135.29236 | 40375 ft | 579 kts | 51° |
| 2026-05-08 04:04 | 40.93792 | -135.25113 | 40564 ft | 579 kts | 51° |
| 2026-05-08 04:04 | 40.96332 | -135.20983 | 40770 ft | 578 kts | 51° |
| 2026-05-08 04:04 | 40.98869 | -135.16853 | 40927 ft | 579 kts | 51° |
| 2026-05-08 04:04 | 41.01409 | -135.12713 | 40973 ft | 579 kts | 51° |
| 2026-05-08 04:05 | 41.06460 | -135.04464 | 40990 ft | 573 kts | 51° |
| 2026-05-08 04:05 | 41.11454 | -134.96285 | 40994 ft | 569 kts | 51° |
| 2026-05-08 04:06 | 41.16423 | -134.88124 | 41003 ft | 568 kts | 51° |
| 2026-05-08 04:06 | 41.21387 | -134.79952 | 41002 ft | 568 kts | 51° |
| 2026-05-08 04:07 | 41.26345 | -134.71765 | 41006 ft | 569 kts | 52° |
| 2026-05-08 04:07 | 41.31309 | -134.63548 | 41001 ft | 570 kts | 52° |
| 2026-05-08 04:08 | 41.36275 | -134.55306 | 41006 ft | 572 kts | 52° |
| 2026-05-08 04:08 | 41.41247 | -134.47031 | 41001 ft | 572 kts | 52° |
| 2026-05-08 04:09 | 41.46217 | -134.38735 | 41002 ft | 573 kts | 52° |
| 2026-05-08 04:09 | 41.51188 | -134.30417 | 41000 ft | 574 kts | 52° |
| 2026-05-08 04:10 | 41.56155 | -134.22082 | 41001 ft | 574 kts | 52° |
| 2026-05-08 04:10 | 41.61116 | -134.13734 | 41002 ft | 574 kts | 52° |
| 2026-05-08 04:11 | 41.66071 | -134.05373 | 41000 ft | 574 kts | 52° |
| 2026-05-08 04:11 | 41.71017 | -133.97005 | 41004 ft | 573 kts | 52° |
| 2026-05-08 04:12 | 41.75959 | -133.88619 | 41001 ft | 573 kts | 52° |
| 2026-05-08 04:12 | 41.80891 | -133.80227 | 41003 ft | 573 kts | 52° |
| 2026-05-08 04:13 | 41.85814 | -133.71828 | 40999 ft | 573 kts | 52° |
| 2026-05-08 04:13 | 41.90735 | -133.63408 | 41001 ft | 573 kts | 52° |
| 2026-05-08 04:14 | 41.95614 | -133.55037 | 41001 ft | 573 kts | 52° |
| 2026-05-08 04:14 | 42.00552 | -133.46541 | 41002 ft | 573 kts | 52° |
| 2026-05-08 04:15 | 42.05419 | -133.38144 | 41002 ft | 573 kts | 53° |
| 2026-05-08 04:15 | 42.10315 | -133.29673 | 41000 ft | 573 kts | 53° |
| 2026-05-08 04:16 | 42.15205 | -133.21190 | 41002 ft | 573 kts | 53° |
| 2026-05-08 04:16 | 42.20089 | -133.12691 | 41000 ft | 573 kts | 53° |
| 2026-05-08 04:17 | 42.24968 | -133.04177 | 41001 ft | 574 kts | 53° |
| 2026-05-08 04:17 | 42.29842 | -132.95648 | 41001 ft | 574 kts | 53° |
| 2026-05-08 04:18 | 42.34712 | -132.87102 | 41002 ft | 574 kts | 53° |
| 2026-05-08 04:18 | 42.39572 | -132.78549 | 41001 ft | 574 kts | 53° |
| 2026-05-08 04:19 | 42.44433 | -132.69969 | 41003 ft | 574 kts | 53° |
| 2026-05-08 04:19 | 42.49282 | -132.61387 | 41002 ft | 574 kts | 53° |
| 2026-05-08 04:20 | 42.54127 | -132.52788 | 41000 ft | 574 kts | 53° |
| 2026-05-08 04:20 | 42.58966 | -132.44174 | 41001 ft | 574 kts | 53° |
| 2026-05-08 04:21 | 42.63801 | -132.35541 | 41005 ft | 574 kts | 53° |
| 2026-05-08 04:21 | 42.68598 | -132.26951 | 41002 ft | 574 kts | 53° |
| 2026-05-08 04:22 | 42.73419 | -132.18294 | 41001 ft | 574 kts | 53° |
| 2026-05-08 04:22 | 42.78234 | -132.09623 | 40999 ft | 574 kts | 53° |
| 2026-05-08 04:23 | 42.83045 | -132.00933 | 41000 ft | 574 kts | 54° |
| 2026-05-08 04:23 | 42.87851 | -131.92227 | 41000 ft | 575 kts | 54° |
| 2026-05-08 04:24 | 42.92648 | -131.83512 | 41003 ft | 575 kts | 54° |
| 2026-05-08 04:24 | 42.97439 | -131.74783 | 41004 ft | 575 kts | 54° |
| 2026-05-08 04:25 | 43.02228 | -131.66031 | 41002 ft | 575 kts | 54° |
| 2026-05-08 04:25 | 43.07008 | -131.57269 | 41003 ft | 575 kts | 54° |
| 2026-05-08 04:26 | 43.11781 | -131.48494 | 41001 ft | 575 kts | 54° |
| 2026-05-08 04:26 | 43.16551 | -131.39699 | 41001 ft | 575 kts | 54° |
| 2026-05-08 04:27 | 43.21312 | -131.30895 | 41001 ft | 575 kts | 54° |
| 2026-05-08 04:27 | 43.26068 | -131.22073 | 41003 ft | 575 kts | 54° |
| 2026-05-08 04:28 | 43.30818 | -131.13236 | 40999 ft | 575 kts | 54° |
| 2026-05-08 04:28 | 43.35561 | -131.04385 | 41000 ft | 575 kts | 54° |
| 2026-05-08 04:29 | 43.40298 | -130.95520 | 41000 ft | 575 kts | 54° |
| 2026-05-08 04:29 | 43.45028 | -130.86641 | 41002 ft | 575 kts | 54° |
| 2026-05-08 04:30 | 43.49755 | -130.77740 | 40999 ft | 576 kts | 54° |
| 2026-05-08 04:30 | 43.54442 | -130.68888 | 41004 ft | 576 kts | 55° |
| 2026-05-08 04:31 | 43.59155 | -130.59960 | 41001 ft | 576 kts | 55° |
| 2026-05-08 04:31 | 43.63860 | -130.51021 | 41001 ft | 576 kts | 55° |
| 2026-05-08 04:32 | 43.68558 | -130.42066 | 41003 ft | 576 kts | 55° |
| 2026-05-08 04:32 | 43.73251 | -130.33095 | 41001 ft | 576 kts | 55° |
| 2026-05-08 04:33 | 43.77934 | -130.24113 | 41001 ft | 576 kts | 55° |
| 2026-05-08 04:33 | 43.82616 | -130.15108 | 41000 ft | 576 kts | 55° |
| 2026-05-08 04:34 | 43.87285 | -130.06099 | 41002 ft | 576 kts | 55° |
| 2026-05-08 04:34 | 43.91954 | -129.97064 | 41004 ft | 576 kts | 55° |
| 2026-05-08 04:35 | 43.96611 | -129.88021 | 41002 ft | 576 kts | 55° |
| 2026-05-08 04:35 | 44.01233 | -129.79020 | 41003 ft | 576 kts | 56° |
| 2026-05-08 04:36 | 44.05879 | -129.69945 | 41001 ft | 576 kts | 56° |
| 2026-05-08 04:36 | 44.10519 | -129.60852 | 41003 ft | 576 kts | 56° |
| 2026-05-08 04:37 | 44.15152 | -129.51746 | 41003 ft | 576 kts | 56° |
| 2026-05-08 04:37 | 44.19779 | -129.42621 | 41002 ft | 576 kts | 56° |
| 2026-05-08 04:38 | 44.24395 | -129.33491 | 41003 ft | 577 kts | 56° |
| 2026-05-08 04:38 | 44.29009 | -129.24335 | 41001 ft | 577 kts | 56° |
| 2026-05-08 04:39 | 44.33614 | -129.15168 | 41001 ft | 577 kts | 56° |
| 2026-05-08 04:39 | 44.38211 | -129.05989 | 40999 ft | 577 kts | 56° |
| 2026-05-08 04:40 | 44.42804 | -128.96787 | 41001 ft | 577 kts | 56° |
| 2026-05-08 04:40 | 44.47388 | -128.87575 | 41002 ft | 577 kts | 56° |
| 2026-05-08 04:41 | 44.51968 | -128.78343 | 41001 ft | 577 kts | 56° |
| 2026-05-08 04:41 | 44.56538 | -128.69100 | 40999 ft | 577 kts | 56° |
| 2026-05-08 04:42 | 44.61102 | -128.59838 | 41003 ft | 577 kts | 56° |
| 2026-05-08 04:42 | 44.65657 | -128.50567 | 41003 ft | 577 kts | 57° |
| 2026-05-08 04:43 | 44.70207 | -128.41274 | 41002 ft | 577 kts | 57° |
| 2026-05-08 04:43 | 44.74751 | -128.31966 | 41001 ft | 577 kts | 57° |
| 2026-05-08 04:44 | 44.78519 | -128.24222 | 40999 ft | 577 kts | 57° |
| 2026-05-08 04:44 | 44.83049 | -128.14887 | 41005 ft | 577 kts | 57° |
| 2026-05-08 04:45 | 44.87571 | -128.05537 | 41001 ft | 577 kts | 57° |
| 2026-05-08 04:45 | 44.92819 | -127.94648 | 41000 ft | 577 kts | 57° |
| 2026-05-08 04:46 | 44.96597 | -127.86782 | 41001 ft | 577 kts | 57° |
| 2026-05-08 04:46 | 45.01097 | -127.77388 | 41001 ft | 578 kts | 57° |
| 2026-05-08 04:47 | 45.05591 | -127.67973 | 41000 ft | 578 kts | 57° |
| 2026-05-08 04:47 | 45.10078 | -127.58541 | 41003 ft | 578 kts | 57° |
| 2026-05-08 04:48 | 45.14559 | -127.49092 | 41003 ft | 578 kts | 57° |
| 2026-05-08 04:48 | 45.19029 | -127.39635 | 41001 ft | 578 kts | 57° |
| 2026-05-08 04:49 | 45.23465 | -127.30216 | 41003 ft | 578 kts | 57° |
| 2026-05-08 04:49 | 45.27922 | -127.20724 | 41001 ft | 578 kts | 58° |
| 2026-05-08 04:50 | 45.32371 | -127.11216 | 41002 ft | 578 kts | 58° |
| 2026-05-08 04:50 | 45.36813 | -127.01690 | 41003 ft | 578 kts | 58° |
| 2026-05-08 04:51 | 45.41250 | -126.92145 | 41003 ft | 578 kts | 58° |
| 2026-05-08 04:51 | 45.45675 | -126.82590 | 41002 ft | 578 kts | 58° |
| 2026-05-08 04:52 | 45.50097 | -126.73023 | 41001 ft | 578 kts | 57° |
| 2026-05-08 04:52 | 45.54906 | -126.63836 | 41010 ft | 578 kts | 52° |
| 2026-05-08 04:53 | 45.59942 | -126.54871 | 41003 ft | 579 kts | 51° |
| 2026-05-08 04:53 | 45.64973 | -126.45903 | 41000 ft | 579 kts | 52° |
| 2026-05-08 04:54 | 45.69966 | -126.36868 | 41002 ft | 579 kts | 52° |
| 2026-05-08 04:54 | 45.74929 | -126.27803 | 41001 ft | 579 kts | 52° |
| 2026-05-08 04:55 | 45.79886 | -126.18716 | 40998 ft | 579 kts | 52° |
| 2026-05-08 04:55 | 45.84839 | -126.09616 | 41000 ft | 579 kts | 52° |
| 2026-05-08 04:56 | 45.89787 | -126.00503 | 41002 ft | 579 kts | 53° |
| 2026-05-08 04:56 | 45.94729 | -125.91374 | 41003 ft | 579 kts | 53° |
| 2026-05-08 04:57 | 45.99662 | -125.82227 | 41001 ft | 579 kts | 53° |
| 2026-05-08 04:57 | 46.04552 | -125.73133 | 41001 ft | 579 kts | 53° |
| 2026-05-08 04:58 | 46.09471 | -125.63952 | 41001 ft | 579 kts | 53° |
| 2026-05-08 04:58 | 46.14383 | -125.54756 | 41000 ft | 579 kts | 53° |
| 2026-05-08 04:59 | 46.19283 | -125.45552 | 41002 ft | 579 kts | 53° |
| 2026-05-08 04:59 | 46.24178 | -125.36326 | 41001 ft | 579 kts | 53° |
| 2026-05-08 05:00 | 46.29066 | -125.27085 | 41002 ft | 579 kts | 53° |
| 2026-05-08 05:00 | 46.33944 | -125.17830 | 41003 ft | 579 kts | 53° |
| 2026-05-08 05:01 | 46.38818 | -125.08553 | 40999 ft | 579 kts | 53° |
| 2026-05-08 05:01 | 46.43682 | -124.99265 | 41001 ft | 579 kts | 53° |
| 2026-05-08 05:02 | 46.48538 | -124.89961 | 41005 ft | 579 kts | 53° |
| 2026-05-08 05:02 | 46.53390 | -124.80632 | 41001 ft | 579 kts | 53° |
| 2026-05-08 05:03 | 46.58233 | -124.71291 | 41003 ft | 579 kts | 54° |
| 2026-05-08 05:03 | 46.63063 | -124.61942 | 41002 ft | 579 kts | 54° |
| 2026-05-08 05:04 | 46.67891 | -124.52565 | 41002 ft | 579 kts | 54° |
| 2026-05-08 05:04 | 46.72709 | -124.43177 | 41000 ft | 579 kts | 54° |
| 2026-05-08 05:05 | 46.77522 | -124.33769 | 41001 ft | 579 kts | 54° |
| 2026-05-08 05:05 | 46.82323 | -124.24348 | 40999 ft | 579 kts | 54° |
| 2026-05-08 05:06 | 46.87086 | -124.14973 | 41001 ft | 578 kts | 54° |
| 2026-05-08 05:06 | 46.91873 | -124.05518 | 41004 ft | 579 kts | 54° |
| 2026-05-08 05:07 | 46.96654 | -123.96042 | 41002 ft | 578 kts | 54° |
| 2026-05-08 05:07 | 47.01421 | -123.86563 | 41001 ft | 579 kts | 54° |
| 2026-05-08 05:08 | 47.06190 | -123.77046 | 41004 ft | 579 kts | 54° |
| 2026-05-08 05:08 | 47.10952 | -123.67511 | 41004 ft | 579 kts | 54° |
| 2026-05-08 05:09 | 47.15705 | -123.57958 | 40998 ft | 579 kts | 54° |
| 2026-05-08 05:09 | 47.20451 | -123.48389 | 40999 ft | 580 kts | 55° |
| 2026-05-08 05:10 | 47.27559 | -123.33995 | 40998 ft | 580 kts | 55° |
| 2026-05-08 05:11 | 47.32294 | -123.24366 | 41003 ft | 580 kts | 55° |
| 2026-05-08 05:11 | 47.37015 | -123.14729 | 41000 ft | 580 kts | 55° |
| 2026-05-08 05:12 | 47.41733 | -123.05065 | 41001 ft | 580 kts | 55° |
| 2026-05-08 05:12 | 47.46436 | -122.95398 | 41000 ft | 580 kts | 55° |
| 2026-05-08 05:13 | 47.51130 | -122.85715 | 40999 ft | 579 kts | 55° |
| 2026-05-08 05:13 | 47.55788 | -122.76074 | 41000 ft | 580 kts | 55° |
| 2026-05-08 05:14 | 47.60466 | -122.66357 | 41001 ft | 579 kts | 56° |
| 2026-05-08 05:14 | 47.65134 | -122.56626 | 41000 ft | 579 kts | 56° |
| 2026-05-08 05:15 | 47.69789 | -122.46888 | 40999 ft | 579 kts | 56° |
| 2026-05-08 05:15 | 47.74436 | -122.37130 | 41001 ft | 578 kts | 56° |
| 2026-05-08 05:16 | 47.79072 | -122.27362 | 41000 ft | 578 kts | 56° |
| 2026-05-08 05:16 | 47.83703 | -122.17569 | 41004 ft | 579 kts | 56° |
| 2026-05-08 05:17 | 47.88324 | -122.07763 | 41001 ft | 579 kts | 56° |
| 2026-05-08 05:17 | 47.92939 | -121.97934 | 41007 ft | 579 kts | 56° |
| 2026-05-08 05:18 | 47.97548 | -121.88081 | 41001 ft | 579 kts | 56° |
| 2026-05-08 05:18 | 48.02155 | -121.78199 | 41000 ft | 580 kts | 56° |
| 2026-05-08 05:19 | 48.06763 | -121.68277 | 40996 ft | 582 kts | 56° |
| 2026-05-08 05:19 | 48.11374 | -121.58310 | 41002 ft | 584 kts | 56° |
| 2026-05-08 05:20 | 48.15998 | -121.48286 | 41015 ft | 585 kts | 56° |
| 2026-05-08 05:20 | 48.20597 | -121.38274 | 41002 ft | 586 kts | 57° |
| 2026-05-08 05:21 | 48.25211 | -121.28192 | 40992 ft | 586 kts | 57° |
| 2026-05-08 05:21 | 48.29813 | -121.18092 | 40997 ft | 586 kts | 57° |
| 2026-05-08 05:22 | 48.34408 | -121.07969 | 40992 ft | 586 kts | 57° |
| 2026-05-08 05:22 | 48.39001 | -120.97824 | 40994 ft | 587 kts | 57° |
| 2026-05-08 05:23 | 48.43589 | -120.87666 | 41009 ft | 587 kts | 57° |
| 2026-05-08 05:23 | 48.48168 | -120.77473 | 41005 ft | 588 kts | 57° |
| 2026-05-08 05:24 | 48.52747 | -120.67241 | 41011 ft | 590 kts | 57° |
| 2026-05-08 05:24 | 48.57336 | -120.56935 | 40995 ft | 592 kts | 57° |
| 2026-05-08 05:25 | 48.61924 | -120.46601 | 40985 ft | 592 kts | 57° |
| 2026-05-08 05:25 | 48.66454 | -120.36361 | 40994 ft | 589 kts | 57° |
| 2026-05-08 05:26 | 48.71029 | -120.25991 | 41000 ft | 588 kts | 57° |
| 2026-05-08 05:26 | 48.75531 | -120.15736 | 40982 ft | 589 kts | 58° |
| 2026-05-08 05:27 | 48.80076 | -120.05342 | 41011 ft | 586 kts | 58° |
| 2026-05-08 05:27 | 48.84546 | -119.95081 | 40994 ft | 587 kts | 58° |
| 2026-05-08 05:28 | 48.89046 | -119.84712 | 40997 ft | 589 kts | 58° |
| 2026-05-08 05:28 | 48.93545 | -119.74304 | 41002 ft | 590 kts | 58° |
| 2026-05-08 05:29 | 48.98031 | -119.63910 | 40995 ft | 586 kts | 58° |
| 2026-05-08 05:29 | 49.02472 | -119.53529 | 40998 ft | 585 kts | 58° |
| 2026-05-08 05:30 | 49.06904 | -119.43151 | 41011 ft | 583 kts | 58° |
| 2026-05-08 05:30 | 49.11327 | -119.32765 | 41003 ft | 584 kts | 58° |
| 2026-05-08 05:31 | 49.15747 | -119.22347 | 41004 ft | 586 kts | 58° |
| 2026-05-08 05:31 | 49.20176 | -119.11862 | 41006 ft | 588 kts | 58° |
| 2026-05-08 05:32 | 49.24606 | -119.01332 | 41007 ft | 589 kts | 58° |
| 2026-05-08 05:32 | 49.29023 | -118.90787 | 41001 ft | 589 kts | 59° |
| 2026-05-08 05:33 | 49.33430 | -118.80229 | 40997 ft | 588 kts | 59° |
| 2026-05-08 05:33 | 49.37827 | -118.69653 | 41003 ft | 589 kts | 59° |
| 2026-05-08 05:34 | 49.42218 | -118.59048 | 41005 ft | 589 kts | 59° |
| 2026-05-08 05:34 | 49.45862 | -118.50214 | 41011 ft | 588 kts | 59° |
| 2026-05-08 05:35 | 49.50230 | -118.39586 | 41006 ft | 586 kts | 59° |
| 2026-05-08 05:35 | 49.54574 | -118.28974 | 40996 ft | 586 kts | 59° |
| 2026-05-08 05:36 | 49.58912 | -118.18338 | 41002 ft | 586 kts | 59° |
| 2026-05-08 05:36 | 49.63230 | -118.07706 | 41003 ft | 585 kts | 59° |
| 2026-05-08 05:37 | 49.67545 | -117.97044 | 40993 ft | 588 kts | 59° |
| 2026-05-08 05:37 | 49.71873 | -117.86296 | 41009 ft | 590 kts | 59° |
| 2026-05-08 05:38 | 49.76212 | -117.75466 | 41008 ft | 593 kts | 59° |
| 2026-05-08 05:38 | 49.80563 | -117.64574 | 40984 ft | 596 kts | 60° |
| 2026-05-08 05:39 | 49.84906 | -117.53664 | 41000 ft | 594 kts | 60° |
| 2026-05-08 05:39 | 49.89195 | -117.42849 | 40993 ft | 582 kts | 60° |
| 2026-05-08 05:40 | 49.93386 | -117.32233 | 40992 ft | 576 kts | 60° |
| 2026-05-08 05:40 | 49.97590 | -117.21526 | 40998 ft | 585 kts | 60° |
| 2026-05-08 05:41 | 50.01849 | -117.10637 | 41005 ft | 593 kts | 60° |
| 2026-05-08 05:41 | 50.06129 | -116.99658 | 40997 ft | 593 kts | 60° |
| 2026-05-08 05:42 | 50.10375 | -116.88724 | 41006 ft | 585 kts | 60° |
| 2026-05-08 05:42 | 50.14573 | -116.77864 | 40998 ft | 589 kts | 60° |
| 2026-05-08 05:43 | 50.18814 | -116.66840 | 40998 ft | 595 kts | 60° |
| 2026-05-08 05:43 | 50.23058 | -116.55762 | 41004 ft | 596 kts | 61° |
| 2026-05-08 05:44 | 50.27305 | -116.44636 | 40993 ft | 596 kts | 60° |
| 2026-05-08 05:44 | 50.31539 | -116.33501 | 41001 ft | 596 kts | 60° |
| 2026-05-08 05:45 | 50.35722 | -116.22441 | 40947 ft | 581 kts | 61° |
| 2026-05-08 05:45 | 50.37738 | -116.16979 | 40163 ft | 579 kts | 64° |
| 2026-05-08 05:45 | 50.39516 | -116.11348 | 39373 ft | 576 kts | 69° |
| 2026-05-08 05:45 | 50.40940 | -116.05587 | 38541 ft | 573 kts | 74° |
| 2026-05-08 05:46 | 50.42222 | -115.99691 | 37767 ft | 570 kts | 75° |
| 2026-05-08 05:46 | 50.43463 | -115.93820 | 36867 ft | 568 kts | 75° |
| 2026-05-08 05:46 | 50.44711 | -115.87936 | 35923 ft | 568 kts | 75° |
| 2026-05-08 05:46 | 50.45973 | -115.82056 | 34815 ft | 571 kts | 74° |
| 2026-05-08 05:47 | 50.47263 | -115.76131 | 33598 ft | 575 kts | 75° |
| 2026-05-08 05:47 | 50.48564 | -115.70200 | 32402 ft | 575 kts | 74° |
| 2026-05-08 05:47 | 50.49874 | -115.64257 | 31143 ft | 576 kts | 74° |
| 2026-05-08 05:47 | 50.51181 | -115.58300 | 29947 ft | 576 kts | 74° |
| 2026-05-08 05:48 | 50.52477 | -115.52391 | 29032 ft | 568 kts | 74° |
| 2026-05-08 05:48 | 50.53741 | -115.46549 | 28184 ft | 561 kts | 75° |
| 2026-05-08 05:48 | 50.54977 | -115.40773 | 27292 ft | 556 kts | 75° |
| 2026-05-08 05:48 | 50.56201 | -115.35013 | 26391 ft | 553 kts | 75° |
| 2026-05-08 05:49 | 50.57416 | -115.29304 | 25514 ft | 548 kts | 75° |
| 2026-05-08 05:49 | 50.58626 | -115.23656 | 24684 ft | 543 kts | 75° |
| 2026-05-08 05:49 | 50.59827 | -115.18025 | 23760 ft | 541 kts | 75° |
| 2026-05-08 05:49 | 50.61013 | -115.12441 | 22920 ft | 534 kts | 75° |
| 2026-05-08 05:50 | 50.62178 | -115.06929 | 22113 ft | 528 kts | 75° |
| 2026-05-08 05:50 | 50.63328 | -115.01457 | 21253 ft | 525 kts | 75° |
| 2026-05-08 05:50 | 50.64481 | -114.96028 | 20473 ft | 519 kts | 75° |
| 2026-05-08 05:50 | 50.65600 | -114.90721 | 20107 ft | 499 kts | 76° |
| 2026-05-08 05:51 | 50.66678 | -114.85649 | 19101 ft | 479 kts | 76° |
| 2026-05-08 05:51 | 50.67703 | -114.80761 | 17917 ft | 463 kts | 76° |
| 2026-05-08 05:51 | 50.68674 | -114.76056 | 17304 ft | 448 kts | 77° |
| 2026-05-08 05:51 | 50.69642 | -114.71325 | 16566 ft | 460 kts | 77° |
| 2026-05-08 05:52 | 50.70751 | -114.66524 | 15798 ft | 474 kts | 68° |
| 2026-05-08 05:52 | 50.72616 | -114.62203 | 15006 ft | 481 kts | 46° |
| 2026-05-08 05:52 | 50.75039 | -114.58558 | 14192 ft | 480 kts | 41° |
| 2026-05-08 05:52 | 50.77451 | -114.54927 | 13410 ft | 478 kts | 44° |
| 2026-05-08 05:53 | 50.79777 | -114.51203 | 12651 ft | 474 kts | 46° |
| 2026-05-08 05:53 | 50.82045 | -114.47470 | 12168 ft | 466 kts | 45° |
| 2026-05-08 05:53 | 50.84339 | -114.43921 | 11940 ft | 463 kts | 43° |
| 2026-05-08 05:53 | 50.86584 | -114.40582 | 11807 ft | 419 kts | 42° |
| 2026-05-08 05:54 | 50.88577 | -114.37602 | 11795 ft | 382 kts | 42° |
| 2026-05-08 05:54 | 50.90473 | -114.34732 | 11821 ft | 372 kts | 43° |
| 2026-05-08 05:54 | 50.92425 | -114.31767 | 11872 ft | 417 kts | 43° |
| 2026-05-08 05:54 | 50.94661 | -114.28376 | 11910 ft | 456 kts | 43° |
| 2026-05-08 05:55 | 50.96943 | -114.24863 | 11882 ft | 451 kts | 47° |
| 2026-05-08 05:55 | 50.98608 | -114.20988 | 11604 ft | 412 kts | 71° |
| 2026-05-08 05:55 | 50.99223 | -114.16783 | 11171 ft | 365 kts | 97° |
| 2026-05-08 05:55 | 50.99058 | -114.12965 | 10814 ft | 343 kts | 111° |
| 2026-05-08 05:56 | 50.98584 | -114.09343 | 10606 ft | 324 kts | 122° |
| 2026-05-08 05:56 | 50.97550 | -114.06555 | 10470 ft | 264 kts | 153° |
| 2026-05-08 05:56 | 50.96175 | -114.05108 | 10378 ft | 212 kts | 174° |
| 2026-05-08 05:56 | 50.94821 | -114.04412 | 10335 ft | 216 kts | 182° |
| 2026-05-08 05:57 | 50.93282 | -114.04059 | 10269 ft | 229 kts | 189° |
| 2026-05-08 05:57 | 50.91726 | -114.04203 | 10138 ft | 216 kts | 201° |
| 2026-05-08 05:57 | 50.90369 | -114.04881 | 10024 ft | 199 kts | 210° |
| 2026-05-08 05:57 | 50.89139 | -114.05808 | 9778 ft | 192 kts | 214° |
| 2026-05-08 05:58 | 50.88045 | -114.07013 | 9553 ft | 187 kts | 225° |
| 2026-05-08 05:58 | 50.87267 | -114.08658 | 9347 ft | 191 kts | 236° |
| 2026-05-08 05:58 | 50.86614 | -114.10514 | 9124 ft | 199 kts | 237° |
| 2026-05-08 05:58 | 50.85939 | -114.12477 | 8874 ft | 202 kts | 237° |
| 2026-05-08 05:59 | 50.85265 | -114.14434 | 8641 ft | 203 kts | 237° |
| 2026-05-08 05:59 | 50.84590 | -114.16383 | 8386 ft | 199 kts | 236° |
| 2026-05-08 05:59 | 50.83677 | -114.17896 | 8312 ft | 185 kts | 219° |
| 2026-05-08 05:59 | 50.82637 | -114.19049 | 8313 ft | 187 kts | 217° |
| 2026-05-08 06:00 | 50.81358 | -114.19867 | 8335 ft | 206 kts | 204° |
| 2026-05-08 06:00 | 50.79945 | -114.20377 | 8306 ft | 216 kts | 195° |
| 2026-05-08 06:00 | 50.78364 | -114.20075 | 8310 ft | 234 kts | 179° |
| 2026-05-08 06:00 | 50.76829 | -114.19156 | 8330 ft | 240 kts | 170° |
| 2026-05-08 06:01 | 50.75374 | -114.17767 | 8333 ft | 257 kts | 159° |
| 2026-05-08 06:01 | 50.74051 | -114.15721 | 8337 ft | 278 kts | 144° |
| 2026-05-08 06:01 | 50.73057 | -114.12962 | 8330 ft | 304 kts | 124° |
| 2026-05-08 06:01 | 50.72660 | -114.09558 | 8315 ft | 329 kts | 100° |
| 2026-05-08 06:02 | 50.73101 | -114.05929 | 8309 ft | 347 kts | 72° |
| 2026-05-08 06:02 | 50.74424 | -114.02721 | 8293 ft | 349 kts | 44° |
| 2026-05-08 06:02 | 50.76348 | -114.00637 | 8361 ft | 324 kts | 17° |
| 2026-05-08 06:02 | 50.78416 | -113.99689 | 8348 ft | 297 kts | 355° |
| 2026-05-08 06:03 | 50.80439 | -113.99507 | 8254 ft | 292 kts | 348° |
| 2026-05-08 06:03 | 50.82520 | -113.99279 | 7833 ft | 304 kts | 352° |
| 2026-05-08 06:03 | 50.84618 | -113.99090 | 7464 ft | 301 kts | 348° |
| 2026-05-08 06:03 | 50.86633 | -113.99040 | 7092 ft | 277 kts | 346° |
| 2026-05-08 06:04 | 50.88493 | -113.99034 | 6814 ft | 257 kts | 344° |
| 2026-05-08 06:04 | 50.90271 | -113.99052 | 6687 ft | 259 kts | 343° |
| 2026-05-08 06:04 | 50.92038 | -113.99067 | 6635 ft | 260 kts | 351° |
| 2026-05-08 06:04 | 50.93781 | -113.99067 | 6632 ft | 241 kts | 359° |
| 2026-05-08 06:05 | 50.95397 | -113.99059 | 6550 ft | 222 kts | 359° |
| 2026-05-08 06:05 | 50.96874 | -113.99056 | 6359 ft | 204 kts | 359° |
| 2026-05-08 06:05 | 50.98253 | -113.99054 | 6104 ft | 198 kts | 359° |
| 2026-05-08 06:05 | 50.99677 | -113.99054 | 5863 ft | 209 kts | 359° |
| 2026-05-08 06:06 | 51.01111 | -113.99051 | 5577 ft | 198 kts | 359° |
| 2026-05-08 06:06 | 51.02402 | -113.99048 | 5304 ft | 173 kts | 359° |
| 2026-05-08 06:06 | 51.03532 | -113.99046 | 5079 ft | 152 kts | 358° |
| 2026-05-08 06:06 | 51.04553 | -113.99045 | 4908 ft | 146 kts | 359° |
| 2026-05-08 06:07 | 51.05585 | -113.99044 | 4736 ft | 149 kts | 358° |
| 2026-05-08 06:07 | 51.06615 | -113.99042 | 4524 ft | 147 kts | 358° |
| 2026-05-08 06:07 | 51.07635 | -113.99043 | 4285 ft | 145 kts | 359° |
| 2026-05-08 06:07 | 51.08633 | -113.99042 | 4093 ft | 141 kts | 360° |
| 2026-05-08 06:08 | 51.09614 | -113.99046 | 3847 ft | 140 kts | 0° |
| 2026-05-08 06:08 | 51.10587 | -113.99040 | 3683 ft | 140 kts | 0° |
| 2026-05-08 06:08 | 51.11561 | -113.99038 | 3554 ft | 135 kts | 0° |
| 2026-05-08 06:08 | 51.12377 | -113.99035 | 3553 ft | 96 kts | 0° |
| 2026-05-08 06:09 | 51.12883 | -113.99034 | 3559 ft | 52 kts | 0° |
| 2026-05-08 06:09 | 51.13204 | -113.99033 | 3562 ft | 40 kts | 0° |
| 2026-05-08 06:09 | 51.13405 | -113.99044 | 3561 ft | 23 kts | 349° |
| 2026-05-08 06:09 | 51.13541 | -113.99142 | 3556 ft | 20 kts | 330° |
| 2026-05-08 06:10 | 51.13638 | -113.99251 | 3557 ft | 13 kts | 301° |
| 2026-05-08 06:10 | 51.13651 | -113.99379 | 3561 ft | 11 kts | 264° |
| 2026-05-08 06:10 | 51.13590 | -113.99440 | 3561 ft | 12 kts | 183° |
| 2026-05-08 06:10 | 51.13496 | -113.99442 | 3561 ft | 15 kts | 180° |
| 2026-05-08 06:11 | 51.13389 | -113.99443 | 3559 ft | 16 kts | 180° |
| 2026-05-08 06:11 | 51.13271 | -113.99443 | 3560 ft | 17 kts | 180° |
| 2026-05-08 06:11 | 51.13151 | -113.99443 | 3557 ft | 18 kts | 180° |
| 2026-05-08 06:11 | 51.13018 | -113.99444 | 3558 ft | 20 kts | 180° |
| 2026-05-08 06:12 | 51.12878 | -113.99444 | 3560 ft | 21 kts | 180° |
| 2026-05-08 06:12 | 51.12753 | -113.99444 | 3560 ft | 11 kts | 180° |
| 2026-05-08 06:12 | 51.12706 | -113.99503 | 3560 ft | 10 kts | 258° |
| 2026-05-08 06:12 | 51.12703 | -113.99630 | 3561 ft | 13 kts | 270° |
| 2026-05-08 06:13 | 51.12704 | -113.99773 | 3561 ft | 13 kts | 270° |
| 2026-05-08 06:13 | 51.12704 | -113.99925 | 3561 ft | 14 kts | 270° |
| 2026-05-08 06:13 | 51.12705 | -114.00080 | 3561 ft | 12 kts | 277° |
| 2026-05-08 06:13 | 51.12773 | -114.00138 | 3561 ft | 12 kts | 357° |
| 2026-05-08 06:14 | 51.12818 | -114.00177 | 3560 ft | 7 kts | 294° |
| 2026-05-08 06:14 | 51.12825 | -114.00256 | 3558 ft | 7 kts | 271° |
| 2026-05-08 06:14 | 51.12824 | -114.00294 | 3560 ft | 1 kts | 269° |
| 2026-05-08 06:14 | 51.12824 | -114.00307 | 3560 ft | 0 kts | 270° |